Time;durP1;ratioP1;P1;durP2;ratioP2;P2;SDS_P1;SDS_P2;PMS_P1;PMS_P2;Temp;Humidity;BMP_temperature;BMP_pressure;BME280_temperature;BME280_humidity;BME280_pressure;Samples;Min_cycle;Max_cycle;Signal;HPM_P1;HPM_P2
2024/04/16 00:00:47;;;;;;;1.17;0.93;;;17.50;45.00;;;;;;5411877;26;20003;-72
2024/04/16 00:03:14;;;;;;;1.05;0.70;;;17.40;45.30;;;;;;5413648;26;20003;-74
2024/04/16 00:05:41;;;;;;;1.70;1.40;;;17.40;45.90;;;;;;5412679;26;19996;-74
2024/04/16 00:08:08;;;;;;;1.10;0.60;;;17.30;46.10;;;;;;5414050;26;20010;-71
2024/04/16 00:10:36;;;;;;;1.45;0.82;;;17.30;46.40;;;;;;5422094;26;19998;-74
2024/04/16 00:13:03;;;;;;;1.20;0.75;;;17.30;46.70;;;;;;5450212;26;19999;-71
2024/04/16 00:15:30;;;;;;;1.27;0.73;;;17.20;46.80;;;;;;5419356;26;20077;-73
2024/04/16 00:17:57;;;;;;;1.55;0.80;;;17.20;47.20;;;;;;5449219;26;19999;-74
2024/04/16 00:20:23;;;;;;;2.58;1.25;;;17.20;47.30;;;;;;5443553;26;22651;-71
2024/04/16 00:22:50;;;;;;;0.85;0.75;;;17.20;47.30;;;;;;5415117;26;20037;-74
2024/04/16 00:25:17;;;;;;;0.30;0.30;;;17.20;47.50;;;;;;5414884;26;20011;-72
2024/04/16 00:27:44;;;;;;;0.20;0.20;;;17.20;47.50;;;;;;5414729;26;20329;-74
2024/04/16 00:30:11;;;;;;;2.88;1.05;;;17.10;47.60;;;;;;5415804;26;19995;-72
2024/04/16 00:32:38;;;;;;;0.80;0.45;;;17.10;47.40;;;;;;5449427;26;20071;-74
2024/04/16 00:35:05;;;;;;;0.82;0.75;;;17.10;47.40;;;;;;5446892;26;20006;-74
2024/04/16 00:37:32;;;;;;;1.27;0.93;;;17.10;47.20;;;;;;5447725;26;19995;-72
2024/04/16 00:39:59;;;;;;;0.75;0.52;;;17.10;47.30;;;;;;5448398;26;19995;-73
2024/04/16 00:42:25;;;;;;;1.55;1.00;;;17.10;47.20;;;;;;5417362;26;19999;-72
2024/04/16 00:44:52;;;;;;;0.32;0.22;;;17.10;47.30;;;;;;5448467;26;19998;-74
2024/04/16 00:47:19;;;;;;;1.48;0.60;;;17.10;47.50;;;;;;5447335;26;19995;-72
2024/04/16 00:49:46;;;;;;;0.77;0.50;;;17.10;47.50;;;;;;5449356;26;20067;-74
2024/04/16 00:52:14;;;;;;;0.52;0.30;;;17.10;47.70;;;;;;5448565;26;20015;-72
2024/04/16 00:54:44;;;;;;;0.40;0.30;;;17.20;47.40;;;;;;5449916;26;20083;-72
2024/04/16 00:57:10;;;;;;;0.50;0.40;;;17.20;47.20;;;;;;5450335;26;20035;-72
2024/04/16 00:59:40;;;;;;;1.23;1.05;;;17.10;47.20;;;;;;5446897;26;20005;-72
2024/04/16 01:02:06;;;;;;;0.95;0.55;;;17.10;47.10;;;;;;5448589;26;20014;-74
2024/04/16 01:04:33;;;;;;;1.50;0.63;;;17.10;47.50;;;;;;5448776;26;20010;-72
2024/04/16 01:07:01;;;;;;;1.30;0.68;;;17.00;47.70;;;;;;5448159;26;20439;-72
2024/04/16 01:09:28;;;;;;;2.60;1.58;;;17.00;47.70;;;;;;5448240;26;20443;-73
2024/04/16 01:11:58;;;;;;;0.60;0.40;;;17.00;47.80;;;;;;5449163;26;20013;-72
2024/04/16 01:14:26;;;;;;;0.60;0.60;;;16.90;48.00;;;;;;5447882;26;20465;-74
2024/04/16 01:16:54;;;;;;;0.93;0.50;;;16.90;48.30;;;;;;5449852;26;19999;-74
2024/04/16 01:19:21;;;;;;;0.70;0.55;;;16.90;48.20;;;;;;5452825;26;19995;-72
2024/04/16 01:21:47;;;;;;;0.80;0.63;;;16.90;48.10;;;;;;5450067;26;20438;-74
2024/04/16 01:24:16;;;;;;;2.28;1.30;;;16.80;48.10;;;;;;5451882;26;20045;-74
2024/04/16 01:26:43;;;;;;;1.05;0.70;;;16.90;48.30;;;;;;5451438;26;20035;-74
2024/04/16 01:29:10;;;;;;;0.55;0.43;;;16.80;48.40;;;;;;5449450;26;19994;-73
2024/04/16 01:31:36;;;;;;;2.53;1.00;;;16.80;48.20;;;;;;5452639;26;20010;-72
2024/04/16 01:34:03;;;;;;;1.00;0.50;;;16.80;48.60;;;;;;5452110;26;20073;-72
2024/04/16 01:36:30;;;;;;;0.88;0.50;;;16.70;48.70;;;;;;5452276;26;20003;-72
2024/04/16 01:38:57;;;;;;;2.92;0.88;;;16.70;49.00;;;;;;5420642;26;19999;-72
2024/04/16 01:41:24;;;;;;;1.90;0.40;;;16.60;49.40;;;;;;5451407;26;20316;-72
2024/04/16 01:43:50;;;;;;;1.48;0.80;;;16.50;50.10;;;;;;5451644;26;19998;-72
2024/04/16 01:46:17;;;;;;;2.35;1.20;;;16.50;50.20;;;;;;5451467;26;20443;-73
2024/04/16 01:48:44;;;;;;;0.40;0.40;;;16.40;50.20;;;;;;5451906;26;19998;-72
2024/04/16 01:51:11;;;;;;;1.25;0.85;;;16.40;50.40;;;;;;5449121;26;20346;-72
2024/04/16 01:53:39;;;;;;;0.73;0.55;;;16.30;50.90;;;;;;5451227;26;19995;-72
2024/04/16 01:56:06;;;;;;;0.98;0.77;;;16.20;51.20;;;;;;5449668;26;20024;-72
2024/04/16 01:58:33;;;;;;;0.65;0.47;;;16.10;51.60;;;;;;5450764;26;19995;-72
2024/04/16 02:01:01;;;;;;;0.28;0.28;;;16.10;51.70;;;;;;5451511;26;19999;-74
2024/04/16 02:03:28;;;;;;;0.40;0.30;;;16.10;51.50;;;;;;5452006;26;20451;-72
2024/04/16 02:05:57;;;;;;;1.33;0.70;;;16.10;51.70;;;;;;5451659;26;19999;-72
2024/04/16 02:08:24;;;;;;;1.27;0.60;;;16.10;51.60;;;;;;5451158;26;20001;-71
2024/04/16 02:10:54;;;;;;;1.33;0.68;;;16.10;52.10;;;;;;5450822;26;20435;-73
2024/04/16 02:13:21;;;;;;;1.05;0.50;;;16.00;51.70;;;;;;5450009;26;19994;-73
2024/04/16 02:15:49;;;;;;;2.83;1.83;;;16.00;51.80;;;;;;5450222;26;20014;-73
2024/04/16 02:18:16;;;;;;;0.40;0.40;;;15.90;51.90;;;;;;5451384;26;20094;-74
2024/04/16 02:20:43;;;;;;;6.40;1.63;;;15.90;52.00;;;;;;5451336;26;20568;-72
2024/04/16 02:23:11;;;;;;;1.33;0.85;;;15.90;52.20;;;;;;5450627;26;19999;-71
2024/04/16 02:25:38;;;;;;;0.93;0.52;;;15.90;51.80;;;;;;5449293;26;19999;-74
2024/04/16 02:28:05;;;;;;;1.63;0.80;;;15.90;52.10;;;;;;5448445;26;20002;-74
2024/04/16 02:30:33;;;;;;;2.28;0.60;;;15.90;52.20;;;;;;5449297;26;20471;-72
2024/04/16 02:33:00;;;;;;;0.55;0.50;;;15.90;52.40;;;;;;5452003;26;20067;-71
2024/04/16 02:35:27;;;;;;;1.95;0.68;;;15.90;52.50;;;;;;5420262;26;20589;-73
2024/04/16 02:37:54;;;;;;;1.73;1.08;;;15.90;52.80;;;;;;5449881;26;20097;-74
2024/04/16 02:40:21;;;;;;;1.23;0.68;;;15.90;53.10;;;;;;5419679;26;19994;-72
2024/04/16 02:42:48;;;;;;;1.80;0.95;;;15.90;53.10;;;;;;5449053;26;19999;-71
2024/04/16 02:45:15;;;;;;;0.82;0.63;;;15.80;53.00;;;;;;5450827;26;20435;-72
2024/04/16 02:47:42;;;;;;;1.67;1.58;;;15.80;53.00;;;;;;5451091;26;20443;-72
2024/04/16 02:50:09;;;;;;;0.93;0.73;;;15.70;53.20;;;;;;5450453;26;20010;-73
2024/04/16 02:52:36;;;;;;;0.73;0.32;;;15.60;53.30;;;;;;5450680;26;20071;-73
2024/04/16 02:55:05;;;;;;;1.30;0.73;;;15.60;53.30;;;;;;5450537;26;19995;-73
2024/04/16 02:57:33;;;;;;;1.17;0.73;;;15.60;53.20;;;;;;5450795;26;20439;-71
2024/04/16 03:00:03;;;;;;;0.85;0.57;;;15.60;53.30;;;;;;5451312;26;20347;-71
2024/04/16 03:02:29;;;;;;;1.52;0.85;;;15.60;53.50;;;;;;5449487;26;20005;-73
2024/04/16 03:04:56;;;;;;;2.05;0.93;;;15.60;53.30;;;;;;5450352;26;20068;-71
2024/04/16 03:07:23;;;;;;;2.33;0.95;;;15.50;53.40;;;;;;5451125;26;20064;-73
2024/04/16 03:09:50;;;;;;;1.83;1.20;;;15.50;53.20;;;;;;5449110;26;20005;-72
2024/04/16 03:12:16;;;;;;;2.40;1.17;;;15.50;53.30;;;;;;5449627;26;20648;-72
2024/04/16 03:14:43;;;;;;;1.73;1.02;;;15.50;53.30;;;;;;5450025;26;20002;-73
2024/04/16 03:17:10;;;;;;;1.48;0.93;;;15.50;53.40;;;;;;5448804;26;20392;-73
2024/04/16 03:19:37;;;;;;;1.67;0.80;;;15.40;53.20;;;;;;5449912;26;20014;-73
2024/04/16 03:22:04;;;;;;;0.35;0.35;;;15.40;53.60;;;;;;5448777;26;20439;-72
2024/04/16 03:24:31;;;;;;;0.70;0.40;;;15.20;53.40;;;;;;5448974;26;20003;-72
2024/04/16 03:26:58;;;;;;;0.85;0.45;;;15.10;53.70;;;;;;5449933;26;20003;-73
2024/04/16 03:29:24;;;;;;;3.13;1.27;;;15.00;53.70;;;;;;5449169;26;20343;-73
2024/04/16 03:31:51;;;;;;;1.48;0.93;;;14.90;54.20;;;;;;5449707;26;20010;-71
2024/04/16 03:34:18;;;;;;;0.85;0.45;;;14.80;54.00;;;;;;5448713;26;20061;-73
2024/04/16 03:36:45;;;;;;;2.08;1.27;;;14.70;54.40;;;;;;5449929;26;20519;-73
2024/04/16 03:39:12;;;;;;;2.10;1.23;;;14.70;54.40;;;;;;5448730;26;20006;-73
2024/04/16 03:41:39;;;;;;;13.90;1.02;;;14.60;54.50;;;;;;5448335;26;20002;-71
2024/04/16 03:44:06;;;;;;;1.77;1.38;;;14.60;54.80;;;;;;5451131;26;20023;-71
2024/04/16 03:46:33;;;;;;;1.45;0.95;;;14.60;55.10;;;;;;5449452;26;19998;-73
2024/04/16 03:49:00;;;;;;;1.67;1.30;;;14.50;55.40;;;;;;5449765;26;19995;-72
2024/04/16 03:51:27;;;;;;;1.85;1.48;;;14.50;55.50;;;;;;5447251;26;20068;-73
2024/04/16 03:53:54;;;;;;;2.20;1.40;;;14.50;55.60;;;;;;5449710;26;19995;-71
2024/04/16 03:56:21;;;;;;;1.92;0.88;;;14.40;55.50;;;;;;5448553;26;19995;-73
2024/04/16 04:01:33;;;;;;;0.43;0.30;;;14.50;56.00;;;;;;5450326;26;20500;-72
2024/04/16 04:04:00;;;;;;;1.20;0.57;;;14.40;55.80;;;;;;5449682;26;20009;-73
2024/04/16 04:06:28;;;;;;;1.48;0.88;;;14.40;55.80;;;;;;5449733;26;19991;-71
2024/04/16 04:08:54;;;;;;;0.43;0.40;;;14.40;55.80;;;;;;5450516;26;20003;-71
2024/04/16 04:11:21;;;;;;;3.10;0.95;;;14.40;55.70;;;;;;5450117;26;19994;-72
2024/04/16 04:13:48;;;;;;;1.35;0.73;;;14.40;55.70;;;;;;5418735;26;20009;-72
2024/04/16 04:16:16;;;;;;;0.93;0.50;;;14.40;56.00;;;;;;5447949;26;20068;-71
2024/04/16 04:18:44;;;;;;;2.22;0.68;;;14.40;56.30;;;;;;5447308;26;19999;-72
2024/04/16 04:21:11;;;;;;;2.75;2.38;;;14.40;56.30;;;;;;5447018;26;20003;-72
2024/04/16 04:23:38;;;;;;;2.47;0.50;;;14.40;56.10;;;;;;5449951;26;20009;-73
2024/04/16 04:26:06;;;;;;;0.68;0.50;;;14.40;56.20;;;;;;5449012;26;19998;-73
2024/04/16 04:28:33;;;;;;;1.75;1.08;;;14.30;56.20;;;;;;5447127;26;19995;-71
2024/04/16 04:31:19;;;;;;;3.00;1.50;;;14.40;56.10;;;;;;5448427;26;19998;-72
2024/04/16 04:33:47;;;;;;;5.90;1.50;;;14.30;56.90;;;;;;5447304;26;20010;-72
2024/04/16 04:36:14;;;;;;;0.98;0.40;;;14.30;56.60;;;;;;5423811;26;20049;-72
2024/04/16 04:38:41;;;;;;;1.75;0.57;;;14.30;56.70;;;;;;5412340;26;20410;-73
2024/04/16 04:41:13;;;;;;;0.35;0.22;;;14.30;56.70;;;;;;5413753;26;20000;-71
2024/04/16 04:43:40;;;;;;;4.03;1.27;;;14.20;56.60;;;;;;5413931;26;20524;-73
2024/04/16 04:46:07;;;;;;;0.70;0.43;;;14.30;56.80;;;;;;5411352;26;20368;-73
2024/04/16 04:48:34;;;;;;;2.95;1.02;;;14.20;57.00;;;;;;5410901;26;19996;-71
2024/04/16 04:51:00;;;;;;;0.57;0.52;;;14.20;57.30;;;;;;5414992;26;20011;-71
2024/04/16 04:53:27;;;;;;;1.20;0.70;;;14.30;57.20;;;;;;5415275;26;20060;-71
2024/04/16 04:55:54;;;;;;;1.30;0.85;;;14.20;56.80;;;;;;5416634;26;20502;-71
2024/04/16 04:58:20;;;;;;;1.55;0.60;;;14.20;57.10;;;;;;5415201;26;20372;-73
2024/04/16 05:00:48;;;;;;;0.45;0.45;;;14.10;57.40;;;;;;5415081;26;19995;-71
2024/04/16 05:03:15;;;;;;;1.65;1.48;;;14.20;57.40;;;;;;5415191;26;20086;-72
2024/04/16 05:05:45;;;;;;;2.45;0.80;;;14.20;57.30;;;;;;5416568;26;20324;-72
2024/04/16 05:08:13;;;;;;;1.88;1.50;;;14.20;57.60;;;;;;5414084;26;19991;-71
2024/04/16 05:10:40;;;;;;;2.40;0.93;;;14.20;57.70;;;;;;5414964;26;20023;-72
2024/04/16 05:13:07;;;;;;;2.75;1.63;;;14.30;57.60;;;;;;5385363;26;20000;-71
2024/04/16 05:15:33;;;;;;;1.08;0.60;;;14.40;57.40;;;;;;5415087;26;19995;-71
2024/04/16 05:18:02;;;;;;;0.38;0.38;;;14.50;57.70;;;;;;5416535;26;20007;-72
2024/04/16 05:20:29;;;;;;;3.38;2.00;;;14.60;57.50;;;;;;5414501;26;21168;-73
2024/04/16 05:22:56;;;;;;;5.18;1.40;;;14.80;57.70;;;;;;5415225;26;20004;-73
2024/04/16 05:25:23;;;;;;;2.90;1.50;;;14.80;57.60;;;;;;5416839;26;20015;-73
2024/04/16 05:27:50;;;;;;;2.17;0.73;;;14.90;58.10;;;;;;5414686;26;20007;-73
2024/04/16 05:30:18;;;;;;;1.00;0.80;;;15.00;57.70;;;;;;5415539;26;20513;-73
2024/04/16 05:32:47;;;;;;;0.85;0.82;;;15.00;57.70;;;;;;5416353;26;20030;-72
2024/04/16 05:35:14;;;;;;;1.35;1.08;;;15.10;58.40;;;;;;5415099;26;20086;-72
2024/04/16 05:37:40;;;;;;;1.17;0.68;;;15.10;58.10;;;;;;5414914;26;19999;-73
2024/04/16 05:40:08;;;;;;;8.70;1.10;;;15.10;57.80;;;;;;5415537;26;20337;-73
2024/04/16 05:42:35;;;;;;;1.67;1.00;;;15.20;57.80;;;;;;5385299;26;19999;-73
2024/04/16 05:45:02;;;;;;;1.35;0.47;;;15.30;58.30;;;;;;5416384;26;19991;-72
2024/04/16 05:47:28;;;;;;;3.55;1.00;;;15.40;58.40;;;;;;5416088;26;20002;-71
2024/04/16 05:49:58;;;;;;;6.15;1.52;;;15.40;58.60;;;;;;5416455;26;20007;-74
2024/04/16 05:52:25;;;;;;;3.17;1.00;;;15.40;58.90;;;;;;5414388;26;20007;-73
2024/04/16 05:54:52;;;;;;;0.77;0.35;;;15.40;58.60;;;;;;5415087;26;19999;-73
2024/04/16 05:57:20;;;;;;;0.98;0.50;;;15.60;58.70;;;;;;5415786;26;20003;-71
2024/04/16 05:59:47;;;;;;;1.48;1.02;;;15.60;58.50;;;;;;5416761;26;19999;-71
2024/04/16 06:02:14;;;;;;;1.15;0.77;;;15.70;58.10;;;;;;5413199;26;20007;-73
2024/04/16 06:04:41;;;;;;;1.33;0.88;;;15.80;58.30;;;;;;5385268;26;19996;-72
2024/04/16 06:07:07;;;;;;;1.95;0.75;;;15.90;58.20;;;;;;5415663;26;19996;-72
2024/04/16 06:09:34;;;;;;;3.50;1.40;;;16.10;57.70;;;;;;5415988;26;20007;-71
2024/04/16 06:12:01;;;;;;;1.45;0.68;;;16.30;57.50;;;;;;5415279;26;19996;-72
2024/04/16 06:14:28;;;;;;;1.15;0.82;;;16.60;57.00;;;;;;5413521;26;20007;-73
2024/04/16 06:16:55;;;;;;;1.63;0.90;;;16.80;56.20;;;;;;5416291;26;20003;-73
2024/04/16 06:19:22;;;;;;;0.95;0.43;;;17.10;56.10;;;;;;5415617;26;19991;-71
2024/04/16 06:21:48;;;;;;;1.02;0.77;;;17.30;55.70;;;;;;5413928;26;19995;-73
2024/04/16 06:24:16;;;;;;;1.58;0.73;;;17.50;55.90;;;;;;5414491;26;19992;-71
2024/04/16 06:26:42;;;;;;;1.73;0.60;;;17.60;55.20;;;;;;5416035;26;19996;-72
2024/04/16 06:29:09;;;;;;;1.38;0.50;;;17.70;54.90;;;;;;5415752;26;19996;-74
2024/04/16 06:31:36;;;;;;;1.55;0.88;;;17.80;54.60;;;;;;5412808;26;19999;-71
2024/04/16 06:34:03;;;;;;;1.85;0.95;;;18.00;54.40;;;;;;5412739;26;20006;-72
2024/04/16 06:36:30;;;;;;;1.52;0.57;;;18.10;54.30;;;;;;5414041;26;20003;-74
2024/04/16 06:38:56;;;;;;;1.77;0.93;;;18.20;54.30;;;;;;5414102;26;20037;-73
2024/04/16 06:41:23;;;;;;;2.65;1.25;;;18.30;54.50;;;;;;5414900;26;20006;-73
2024/04/16 06:43:50;;;;;;;1.38;0.75;;;18.40;54.10;;;;;;5414113;26;20413;-73
2024/04/16 06:46:17;;;;;;;4.45;0.77;;;18.50;53.60;;;;;;5415537;26;20356;-74
2024/04/16 06:48:44;;;;;;;1.38;0.95;;;18.60;53.30;;;;;;5414221;26;19996;-72
2024/04/16 06:51:10;;;;;;;0.82;0.43;;;18.60;53.20;;;;;;5415036;26;20077;-73
2024/04/16 06:53:37;;;;;;;1.02;0.77;;;18.70;53.30;;;;;;5414127;26;19999;-71
2024/04/16 06:56:06;;;;;;;1.02;0.80;;;18.80;53.20;;;;;;5384552;26;20064;-72
2024/04/16 06:58:34;;;;;;;1.58;1.05;;;18.80;53.50;;;;;;5415733;26;19999;-71
2024/04/16 07:01:02;;;;;;;0.85;0.60;;;18.90;53.70;;;;;;5413459;26;19999;-73
2024/04/16 07:03:29;;;;;;;0.57;0.52;;;19.00;53.50;;;;;;5414982;26;19992;-74
2024/04/16 07:05:56;;;;;;;1.90;1.13;;;19.10;53.50;;;;;;5414205;26;20418;-71
2024/04/16 07:08:24;;;;;;;1.08;0.82;;;19.10;53.60;;;;;;5412828;26;20006;-73
2024/04/16 07:10:52;;;;;;;0.52;0.40;;;19.20;53.50;;;;;;5412655;26;20007;-72
2024/04/16 07:13:19;;;;;;;1.60;0.65;;;19.20;53.80;;;;;;5412204;26;20323;-74
2024/04/16 07:15:46;;;;;;;7.10;4.15;;;19.20;54.00;;;;;;5415028;26;19995;-74
2024/04/16 07:18:13;;;;;;;3.78;2.05;;;19.30;54.20;;;;;;5414852;26;19999;-72
2024/04/16 07:20:48;;;;;;;4.35;2.78;;;19.40;53.80;;;;;;5414519;26;20114;-73
2024/04/16 07:23:15;;;;;;;4.88;2.00;;;19.50;53.50;;;;;;5413571;26;20037;-71
2024/04/16 07:25:47;;;;;;;5.70;2.55;;;19.50;53.40;;;;;;5413601;26;19999;-73
2024/04/16 07:28:14;;;;;;;1.85;0.88;;;19.60;53.60;;;;;;5413419;26;20049;-73
2024/04/16 07:31:00;;;;;;;0.32;0.30;;;19.70;52.40;;;;;;5414206;26;19999;-73
2024/04/16 07:33:27;;;;;;;2.38;1.73;;;19.70;51.40;;;;;;5412857;26;20458;-74
2024/04/16 07:35:54;;;;;;;7.07;1.70;;;19.80;50.60;;;;;;5412007;26;20010;-73
2024/04/16 07:38:21;;;;;;;1.58;1.48;;;19.80;49.90;;;;;;5414196;26;20003;-74
2024/04/16 07:41:06;;;;;;;0.50;0.50;;;19.80;49.50;;;;;;5413562;26;20004;-75
2024/04/16 07:43:35;;;;;;;0.65;0.55;;;19.70;49.20;;;;;;5412768;26;20006;-74
2024/04/16 07:46:01;;;;;;;1.13;0.55;;;19.80;49.40;;;;;;5414284;26;20072;-72
2024/04/16 07:48:28;;;;;;;0.85;0.47;;;19.80;48.60;;;;;;5412847;26;20313;-74
2024/04/16 07:50:54;;;;;;;1.17;0.60;;;19.80;48.80;;;;;;5413658;26;20031;-74
2024/04/16 07:53:21;;;;;;;1.33;1.00;;;20.00;48.60;;;;;;5412829;26;20082;-72
2024/04/16 07:55:48;;;;;;;1.27;1.08;;;20.10;48.30;;;;;;5414202;26;20015;-72
2024/04/16 07:58:15;;;;;;;1.10;0.57;;;20.10;47.60;;;;;;5414332;26;19995;-74
2024/04/16 08:00:41;;;;;;;1.65;1.00;;;20.20;47.30;;;;;;5414193;26;20000;-74
2024/04/16 08:03:08;;;;;;;2.30;0.85;;;20.30;46.80;;;;;;5413806;26;20321;-74
2024/04/16 08:05:37;;;;;;;1.08;0.75;;;20.40;46.60;;;;;;5414001;26;20444;-73
2024/04/16 08:08:05;;;;;;;1.10;0.47;;;20.40;46.60;;;;;;5414251;26;19999;-72
2024/04/16 08:10:32;;;;;;;4.40;1.05;;;20.50;46.80;;;;;;5412339;26;19991;-72
2024/04/16 08:12:59;;;;;;;1.13;1.00;;;20.60;46.30;;;;;;5413348;26;19995;-72
2024/04/16 08:15:26;;;;;;;1.23;0.80;;;20.60;46.10;;;;;;5413874;26;20007;-72
2024/04/16 08:17:53;;;;;;;4.55;1.40;;;20.60;46.10;;;;;;5414173;26;19995;-72
2024/04/16 08:20:20;;;;;;;1.73;1.05;;;20.60;46.00;;;;;;5413772;26;20003;-72
2024/04/16 08:22:47;;;;;;;1.48;0.75;;;20.50;46.60;;;;;;5413571;26;20014;-74
2024/04/16 08:25:13;;;;;;;10.25;0.73;;;20.50;46.70;;;;;;5412924;26;20014;-73
2024/04/16 08:27:40;;;;;;;1.27;1.17;;;20.50;46.40;;;;;;5413680;26;19996;-72
2024/04/16 08:30:08;;;;;;;2.17;0.88;;;20.40;46.30;;;;;;5411964;26;19999;-74
2024/04/16 08:32:35;;;;;;;0.75;0.40;;;20.30;46.00;;;;;;5382636;26;20387;-74
2024/04/16 08:35:01;;;;;;;1.70;1.08;;;20.10;45.50;;;;;;5412508;26;20076;-71
2024/04/16 08:40:14;;;;;;;2.17;1.10;;;19.80;46.00;;;;;;5413460;26;20056;-74
2024/04/16 08:42:42;;;;;;;1.25;0.88;;;19.80;46.20;;;;;;5410913;26;20000;-73
2024/04/16 08:45:11;;;;;;;0.80;0.40;;;19.70;45.60;;;;;;5411606;26;20009;-74
2024/04/16 08:47:39;;;;;;;1.20;0.60;;;19.60;45.30;;;;;;5411983;26;20423;-74
2024/04/16 08:50:06;;;;;;;1.60;0.60;;;19.50;45.80;;;;;;5411743;26;19991;-74
2024/04/16 08:52:34;;;;;;;0.32;0.30;;;19.30;46.00;;;;;;5412935;26;20003;-73
2024/04/16 08:55:00;;;;;;;1.65;0.73;;;19.20;46.70;;;;;;5412262;26;20492;-73
2024/04/16 08:57:29;;;;;;;0.55;0.30;;;19.10;47.20;;;;;;5412392;26;20010;-74
2024/04/16 08:59:56;;;;;;;4.68;1.00;;;19.10;47.30;;;;;;5412037;26;20069;-72
2024/04/16 09:02:26;;;;;;;0.90;0.57;;;19.00;47.90;;;;;;5411743;26;20072;-73
2024/04/16 09:04:58;;;;;;;3.35;0.50;;;18.90;47.90;;;;;;5412215;26;20003;-74
2024/04/16 09:07:27;;;;;;;0.60;0.32;;;18.80;48.80;;;;;;5413508;26;20338;-74
2024/04/16 09:09:54;;;;;;;3.05;0.95;;;18.70;48.90;;;;;;5412016;26;19995;-74
2024/04/16 09:12:20;;;;;;;0.45;0.32;;;18.70;49.20;;;;;;5412113;26;20328;-74
2024/04/16 09:14:48;;;;;;;0.85;0.63;;;18.60;49.20;;;;;;5413704;26;20003;-72
2024/04/16 09:17:16;;;;;;;1.08;0.35;;;18.60;49.50;;;;;;5381319;26;20386;-72
2024/04/16 09:19:43;;;;;;;0.47;0.20;;;18.50;48.80;;;;;;5411689;26;20031;-74
2024/04/16 09:22:11;;;;;;;0.10;0.10;;;18.40;48.50;;;;;;5411774;26;20015;-71
2024/04/16 09:24:38;;;;;;;0.40;0.30;;;18.30;47.60;;;;;;5411646;26;20428;-73
2024/04/16 09:27:23;;;;;;;0.10;0.10;;;18.10;47.60;;;;;;5411451;26;19995;-72
2024/04/16 09:29:51;;;;;;;0.13;0.13;;;18.00;48.00;;;;;;5411607;26;20331;-73
2024/04/16 09:32:18;;;;;;;0.10;0.10;;;18.00;47.60;;;;;;5410585;26;20014;-71
2024/04/16 09:34:45;;;;;;;0.43;0.20;;;17.90;47.60;;;;;;5413041;26;20006;-73
2024/04/16 09:37:20;;;;;;;0.65;0.60;;;17.70;47.40;;;;;;5415036;26;20004;-73
2024/04/16 09:39:48;;;;;;;0.50;0.40;;;17.70;47.90;;;;;;5416103;26;20049;-71
2024/04/16 09:42:15;;;;;;;0.10;0.10;;;17.70;48.60;;;;;;5414316;26;19995;-71
2024/04/16 09:44:42;;;;;;;0.20;0.20;;;17.60;47.60;;;;;;5415205;26;20068;-72
2024/04/16 09:47:09;;;;;;;0.73;0.73;;;17.40;46.00;;;;;;5414501;26;20004;-72
2024/04/16 09:49:36;;;;;;;0.40;0.22;;;17.30;46.10;;;;;;5416189;26;20000;-71
2024/04/16 09:52:04;;;;;;;0.43;0.40;;;17.10;45.10;;;;;;5413613;26;19996;-74
2024/04/16 09:54:32;;;;;;;0.30;0.30;;;16.90;44.00;;;;;;5415130;26;20000;-74
2024/04/16 09:57:02;;;;;;;0.93;0.52;;;16.70;43.70;;;;;;5414382;26;19995;-74
2024/04/16 09:59:30;;;;;;;0.20;0.20;;;16.60;44.20;;;;;;5414883;26;20060;-74
2024/04/16 10:01:59;;;;;;;0.55;0.55;;;16.40;44.70;;;;;;5416113;26;20073;-74
2024/04/16 10:04:27;;;;;;;1.20;1.10;;;16.30;44.50;;;;;;5384883;26;19992;-74
2024/04/16 10:06:54;;;;;;;0.30;0.10;;;16.20;44.00;;;;;;5416460;26;19995;-74
2024/04/16 10:09:21;;;;;;;0.10;0.10;;;16.00;43.70;;;;;;5416121;26;20007;-72
2024/04/16 10:11:49;;;;;;;0.10;0.10;;;15.80;44.00;;;;;;5413871;26;20003;-72
2024/04/16 10:17:02;;;;;;;0.10;0.10;;;15.50;44.50;;;;;;5414395;26;20076;-74
2024/04/16 10:19:30;;;;;;;0.10;0.10;;;15.50;44.90;;;;;;5415663;26;20348;-71
2024/04/16 10:22:02;;;;;;;0.17;0.17;;;15.40;44.30;;;;;;5412726;26;20594;-71
2024/04/16 10:24:29;;;;;;;0.22;0.20;;;15.40;44.40;;;;;;5415765;26;19999;-72
2024/04/16 10:27:01;;;;;;;0.38;0.38;;;15.30;44.70;;;;;;5415664;26;20421;-72
2024/04/16 10:29:31;;;;;;;0.10;0.10;;;15.20;44.30;;;;;;5416198;26;20007;-74
2024/04/16 10:32:01;;;;;;;0.22;0.22;;;15.20;43.90;;;;;;5413477;26;20332;-71
2024/04/16 10:34:28;;;;;;;1.25;1.10;;;15.00;42.80;;;;;;5414558;26;19999;-71
2024/04/16 10:36:57;;;;;;;0.98;0.50;;;14.70;42.70;;;;;;5414287;26;20006;-72
2024/04/16 10:39:43;;;;;;;0.32;0.30;;;14.50;42.70;;;;;;5415337;26;20418;-73
2024/04/16 10:42:10;;;;;;;0.90;0.32;;;14.50;43.20;;;;;;5414998;26;20398;-71
2024/04/16 10:44:38;;;;;;;1.25;0.35;;;14.40;42.50;;;;;;5414370;26;20003;-71
2024/04/16 10:47:06;;;;;;;0.10;0.10;;;14.20;42.60;;;;;;5414900;26;20028;-71
2024/04/16 10:49:33;;;;;;;0.20;0.17;;;14.20;43.30;;;;;;5414289;26;20007;-71
2024/04/16 10:52:11;;;;;;;0.10;0.10;;;14.00;42.70;;;;;;5414820;26;20008;-75
2024/04/16 10:54:39;;;;;;;0.85;0.45;;;14.00;43.40;;;;;;5414352;26;20011;-74
2024/04/16 10:57:07;;;;;;;0.10;0.10;;;13.90;42.80;;;;;;5414975;26;20077;-75
2024/04/16 10:59:34;;;;;;;0.10;0.10;;;13.90;42.30;;;;;;5415309;26;19996;-74
2024/04/16 11:02:02;;;;;;;0.30;0.30;;;13.70;42.70;;;;;;5413224;26;20004;-74
2024/04/16 11:04:31;;;;;;;0.50;0.50;;;13.50;42.50;;;;;;5414091;26;20331;-73
2024/04/16 11:06:58;;;;;;;0.30;0.20;;;13.20;43.00;;;;;;5413805;26;20076;-74
2024/04/16 11:09:25;;;;;;;1.10;0.20;;;13.00;43.60;;;;;;5415990;26;20011;-73
2024/04/16 11:11:53;;;;;;;0.30;0.17;;;12.90;44.00;;;;;;5413531;26;20591;-70
2024/04/16 11:14:20;;;;;;;0.15;0.15;;;12.80;43.70;;;;;;5415202;26;20000;-71
2024/04/16 11:16:47;;;;;;;0.25;0.20;;;12.80;44.10;;;;;;5415053;26;19999;-73
2024/04/16 11:19:14;;;;;;;0.95;0.20;;;12.80;44.70;;;;;;5413557;26;19996;-72
2024/04/16 11:21:41;;;;;;;0.20;0.20;;;12.80;44.20;;;;;;5414296;26;19999;-72
2024/04/16 11:24:09;;;;;;;0.30;0.28;;;12.70;44.00;;;;;;5413545;26;20006;-74
2024/04/16 11:26:38;;;;;;;0.10;0.10;;;12.60;44.30;;;;;;5413503;26;20007;-72
2024/04/16 11:29:05;;;;;;;0.15;0.15;;;12.60;44.80;;;;;;5412624;26;20007;-72
2024/04/16 11:31:31;;;;;;;0.10;0.10;;;12.60;44.60;;;;;;5414135;26;20525;-72
2024/04/16 11:33:58;;;;;;;0.25;0.25;;;12.60;44.60;;;;;;5413418;26;20339;-73
2024/04/16 11:36:25;;;;;;;0.50;0.38;;;12.70;44.80;;;;;;5414328;26;20736;-71
2024/04/16 11:38:53;;;;;;;0.10;0.10;;;12.60;44.80;;;;;;5415134;26;20096;-74
2024/04/16 11:41:19;;;;;;;0.15;0.13;;;12.60;44.50;;;;;;5412825;26;20000;-71
2024/04/16 11:43:48;;;;;;;0.10;0.10;;;12.50;45.70;;;;;;5412183;26;20002;-72
2024/04/16 11:46:15;;;;;;;0.13;0.13;;;12.50;45.20;;;;;;5413632;26;20011;-73
2024/04/16 11:48:42;;;;;;;0.10;0.10;;;12.40;45.40;;;;;;5414443;26;19996;-71
2024/04/16 11:51:11;;;;;;;0.10;0.10;;;12.50;45.00;;;;;;5414011;26;20015;-71
2024/04/16 11:53:39;;;;;;;0.10;0.10;;;12.40;44.70;;;;;;5383842;26;20592;-74
2024/04/16 11:56:19;;;;;;;0.10;0.10;;;12.30;45.50;;;;;;5412262;26;20068;-74
2024/04/16 11:58:46;;;;;;;0.10;0.10;;;12.30;45.40;;;;;;5412759;26;20007;-74
2024/04/16 12:01:13;;;;;;;0.20;0.20;;;12.30;45.80;;;;;;5412737;26;20015;-72
2024/04/16 12:03:40;;;;;;;0.10;0.10;;;12.30;46.10;;;;;;5414793;26;20011;-72
2024/04/16 12:06:07;;;;;;;0.10;0.10;;;12.10;45.80;;;;;;5414414;26;20010;-74
2024/04/16 12:08:34;;;;;;;0.10;0.10;;;12.00;46.50;;;;;;5414618;26;20003;-72
2024/04/16 12:11:02;;;;;;;0.10;0.10;;;11.90;46.50;;;;;;5413984;26;20007;-74
2024/04/16 12:13:28;;;;;;;0.10;0.10;;;11.80;46.80;;;;;;5413699;26;20049;-71
2024/04/16 12:15:55;;;;;;;0.35;0.32;;;11.70;46.50;;;;;;5411886;26;20010;-74
2024/04/16 12:18:22;;;;;;;0.10;0.10;;;11.80;46.60;;;;;;5412547;26;19992;-73
2024/04/16 12:20:49;;;;;;;0.10;0.10;;;11.80;46.50;;;;;;5413428;26;20073;-73
2024/04/16 12:23:17;;;;;;;0.38;0.38;;;11.80;47.00;;;;;;5411091;26;20313;-73
2024/04/16 12:25:43;;;;;;;0.20;0.10;;;11.70;47.00;;;;;;5412772;26;20010;-72
2024/04/16 12:28:10;;;;;;;0.25;0.25;;;11.60;47.00;;;;;;5413657;26;19995;-72
2024/04/16 12:30:37;;;;;;;0.35;0.30;;;11.50;47.40;;;;;;5382350;26;20000;-72
2024/04/16 12:33:04;;;;;;;0.25;0.10;;;11.50;47.60;;;;;;5413451;26;19999;-74
2024/04/16 12:35:30;;;;;;;0.20;0.20;;;11.50;48.20;;;;;;5412426;26;19999;-74
2024/04/16 12:37:57;;;;;;;0.80;0.30;;;11.40;48.70;;;;;;5382710;26;20323;-72
2024/04/16 12:40:24;;;;;;;0.90;0.47;;;11.30;49.50;;;;;;5412876;26;20373;-73
2024/04/16 12:42:51;;;;;;;0.10;0.10;;;11.30;49.90;;;;;;5412770;26;20007;-73
2024/04/16 12:45:18;;;;;;;0.50;0.25;;;11.40;50.50;;;;;;5414286;26;19995;-73
2024/04/16 12:47:45;;;;;;;0.22;0.10;;;11.30;51.90;;;;;;5413809;26;20069;-72
2024/04/16 12:50:11;;;;;;;0.73;0.52;;;11.30;51.50;;;;;;5413343;26;20397;-73
2024/04/16 12:52:38;;;;;;;0.17;0.17;;;11.20;51.90;;;;;;5413949;26;20008;-73
2024/04/16 12:55:05;;;;;;;0.13;0.10;;;11.00;53.30;;;;;;5413333;26;20011;-71
2024/04/16 12:57:32;;;;;;;0.10;0.10;;;10.90;52.60;;;;;;5412128;26;19996;-70